Skip Navigation Links Skip Navigation Links

Current Weather

Kyiv, Ukraine

For information only: do not use for flight planning or navigation.
Latest weather
Observation time Wednesday, October 27, 2021 10:00 AM EEST
Local time Wednesday, October 27, 2021 10:15 AM EEST
Flight conditions Visual Meteorological Conditions
Winds
Wind direction West-Southwest (240°)
Wind speed 9 mph
Visibility 6.2 mi.
Sky condition
Ceiling unlimited
Sky clear
Temperature 41°F
Dewpoint 37°F
Altimeter 30.21 in.Hg
Derived measurements
Relative humidity 87%
Wind chill 35°F
Density altitude -880 ft.
Remarks
Ceiling and visibility OK.
No significant changes expected in the next two hours.
METAR UKKK 270700Z 24004MPS CAVOK 05/03 Q1023 R26/CLRD70 NOSIG

Settings

Location code

InnerDrive.Weather 4.0.6770.0 Release CLR 4.0.30319.42000
Copyright ©2018 Inner Drive Technology. All rights reserved. Portions Copyright ©1986-2018 David Braverman.

Find weather

Site navigation


Skip Navigation Links

Place info

Page info

PayPal - The safer, easier way to pay online!

Return home.

Copyright ©2021 Inner Drive Technology. Purveyors of fine, hand-crafted computer software. Page printed 2021-10-27T07:15:57 UTC.